Time;durP1;ratioP1;P1;durP2;ratioP2;P2;SDS_P1;SDS_P2;PMS_P1;PMS_P2;Temp;Humidity;BMP_temperature;BMP_pressure;BME280_temperature;BME280_humidity;BME280_pressure;Samples;Min_cycle;Max_cycle;Signal;HPM_P1;HPM_P2
2024/02/19 00:01:40;;;;;;;24.77;14.82;;;;;;;7.84;87.31;100521.47;5112084;28;20035;-71
2024/02/19 00:04:06;;;;;;;24.60;15.15;;;;;;;7.96;86.38;100521.13;5111419;28;20027;-71
2024/02/19 00:06:31;;;;;;;26.33;14.98;;;;;;;8.09;85.53;100527.97;5111949;28;20024;-71
2024/02/19 00:08:57;;;;;;;33.88;21.45;;;;;;;8.11;85.17;100534.91;5112230;28;20023;-71
2024/02/19 00:11:22;;;;;;;31.77;20.30;;;;;;;8.07;85.53;100524.63;5111927;28;20137;-70
2024/02/19 00:13:48;;;;;;;29.95;18.45;;;;;;;8.06;85.80;100522.97;5111318;28;20057;-71
2024/02/19 00:16:13;;;;;;;30.15;19.38;;;;;;;8.00;86.31;100531.38;5111898;28;20028;-71
2024/02/19 00:18:39;;;;;;;30.90;19.40;;;;;;;7.71;87.90;100522.97;5111079;28;20042;-71
2024/02/19 00:21:04;;;;;;;33.50;19.67;;;;;;;7.59;89.97;100523.34;5093277;28;20027;-71
2024/02/19 00:23:33;;;;;;;35.95;20.02;;;;;;;7.45;91.12;100521.19;5112014;28;20079;-71
2024/02/19 00:26:00;;;;;;;33.10;19.17;;;;;;;7.21;92.87;100534.16;5111485;28;20028;-71
2024/02/19 00:28:26;;;;;;;32.95;18.05;;;;;;;7.14;93.89;100528.91;5111550;28;20024;-71
2024/02/19 00:30:51;;;;;;;31.77;17.05;;;;;;;7.16;93.97;100530.28;5093098;28;20027;-71
2024/02/19 00:33:17;;;;;;;31.83;17.35;;;;;;;6.95;95.36;100525.94;5110348;28;20035;-70
2024/02/19 00:35:42;;;;;;;25.02;14.57;;;;;;;6.95;96.10;100524.00;5111504;28;20024;-71
2024/02/19 00:38:08;;;;;;;26.10;15.63;;;;;;;6.86;97.00;100525.69;5111411;28;20036;-71
2024/02/19 00:40:34;;;;;;;23.83;13.98;;;;;;;6.91;96.94;100527.63;5092952;28;20034;-70
2024/02/19 00:42:59;;;;;;;24.35;14.02;;;;;;;6.72;97.58;100523.53;5092976;28;20031;-71
2024/02/19 00:45:25;;;;;;;26.77;14.00;;;;;;;6.78;97.65;100529.03;5111086;28;20032;-70
2024/02/19 00:47:50;;;;;;;32.45;15.25;;;;;;;6.66;98.38;100521.03;5111227;28;20023;-70
2024/02/19 00:50:16;;;;;;;32.88;16.90;;;;;;;6.71;99.29;100530.19;5109333;28;20031;-70
2024/02/19 00:52:41;;;;;;;34.60;17.98;;;;;;;6.82;98.01;100530.97;5110623;28;20051;-70
2024/02/19 00:55:08;;;;;;;29.02;16.98;;;;;;;7.01;97.58;100530.38;5092693;28;20028;-71
2024/02/19 00:57:33;;;;;;;30.55;16.88;;;;;;;7.08;96.86;100530.88;5091453;28;20464;-71
2024/02/19 00:59:59;;;;;;;33.45;18.13;;;;;;;7.22;96.15;100528.31;5092201;28;20095;-71
2024/02/19 01:02:24;;;;;;;30.15;17.48;;;;;;;6.83;97.45;100534.59;5110757;28;20056;-71
2024/02/19 01:04:53;;;;;;;26.80;15.13;;;;;;;7.10;97.11;100536.16;5110937;28;20031;-69
2024/02/19 01:07:22;;;;;;;22.85;13.77;;;;;;;7.26;95.74;100532.16;5092429;28;20024;-69
2024/02/19 01:09:48;;;;;;;31.85;19.33;;;;;;;7.35;94.42;100534.34;5111532;28;20102;-69
2024/02/19 01:12:14;;;;;;;30.35;18.73;;;;;;;7.30;94.14;100527.72;5111000;28;20041;-69
2024/02/19 01:14:39;;;;;;;22.25;14.32;;;;;;;7.45;93.69;100543.47;5111106;28;20081;-70
2024/02/19 01:17:06;;;;;;;22.83;14.32;;;;;;;7.50;93.13;100539.00;5110984;28;20397;-69
2024/02/19 01:19:32;;;;;;;26.45;17.38;;;;;;;7.50;93.17;100541.78;5102360;28;20028;-69
2024/02/19 01:21:58;;;;;;;25.55;15.57;;;;;;;7.41;93.56;100542.38;5072302;28;20457;-69
2024/02/19 01:24:24;;;;;;;22.83;13.75;;;;;;;7.44;93.20;100530.66;5072452;28;20688;-69
2024/02/19 01:26:51;;;;;;;23.75;13.50;;;;;;;7.46;93.42;100535.97;5080252;28;20047;-69
2024/02/19 01:29:17;;;;;;;24.15;13.70;;;;;;;7.36;93.61;100527.66;5110739;28;20399;-69
2024/02/19 01:31:42;;;;;;;23.00;14.02;;;;;;;7.36;93.75;100527.66;5092519;28;20035;-69
2024/02/19 01:34:08;;;;;;;24.05;13.50;;;;;;;7.34;93.83;100529.91;5091749;28;20465;-69
2024/02/19 01:36:34;;;;;;;22.73;13.30;;;;;;;7.33;94.07;100523.50;5110731;28;20027;-69
2024/02/19 01:38:59;;;;;;;23.20;14.10;;;;;;;7.36;93.53;100524.88;5091418;28;20030;-69
2024/02/19 01:41:25;;;;;;;28.65;17.25;;;;;;;7.33;94.05;100522.69;5092428;28;20171;-69
2024/02/19 01:43:50;;;;;;;24.63;14.73;;;;;;;7.34;93.96;100519.59;5092354;28;20084;-69
2024/02/19 01:46:17;;;;;;;20.00;12.32;;;;;;;7.30;93.84;100521.31;5110561;28;20023;-69
2024/02/19 01:48:44;;;;;;;25.02;15.30;;;;;;;7.21;94.66;100521.06;5110380;28;20030;-69
2024/02/19 01:51:10;;;;;;;25.40;15.85;;;;;;;7.20;94.89;100519.41;5092707;28;20495;-69
2024/02/19 01:53:36;;;;;;;22.73;13.60;;;;;;;7.20;94.76;100522.19;5092360;28;20049;-69
2024/02/19 01:56:02;;;;;;;22.95;13.73;;;;;;;7.23;94.73;100518.00;5109589;28;20028;-69
2024/02/19 01:58:30;;;;;;;24.17;14.30;;;;;;;7.25;94.83;100508.25;5110452;28;20047;-69
2024/02/19 02:00:58;;;;;;;29.38;14.80;;;;;;;7.22;94.59;100510.75;5110518;28;20427;-69
2024/02/19 02:03:26;;;;;;;25.77;14.60;;;;;;;7.19;95.09;100505.78;5092160;28;20028;-69
2024/02/19 02:05:52;;;;;;;23.63;15.80;;;;;;;7.25;95.03;100522.16;5091902;28;20038;-70
2024/02/19 02:08:18;;;;;;;25.17;15.63;;;;;;;7.30;94.99;100518.50;5092099;28;20484;-69
2024/02/19 02:10:44;;;;;;;25.88;15.07;;;;;;;7.32;94.68;100507.94;5092175;28;20034;-69
2024/02/19 02:13:09;;;;;;;29.40;15.43;;;;;;;7.30;94.51;100508.22;5110423;28;20565;-70
2024/02/19 02:15:35;;;;;;;26.90;15.52;;;;;;;7.19;94.92;100508.56;5109957;28;20032;-70
2024/02/19 02:18:00;;;;;;;26.05;15.40;;;;;;;7.10;95.24;100503.59;5112807;28;20023;-70
2024/02/19 02:20:26;;;;;;;25.65;15.10;;;;;;;7.08;95.96;100510.56;5113155;28;20512;-71
2024/02/19 02:22:52;;;;;;;26.38;15.40;;;;;;;7.08;96.08;100508.59;5114061;28;20481;-71
2024/02/19 02:25:18;;;;;;;26.42;15.57;;;;;;;7.06;96.51;100505.28;5113118;28;20035;-71
2024/02/19 02:27:43;;;;;;;25.63;15.98;;;;;;;6.90;96.85;100514.84;5095991;28;20063;-71
2024/02/19 02:30:09;;;;;;;26.20;14.73;;;;;;;6.56;99.37;100510.75;5093793;28;20028;-70
2024/02/19 02:32:35;;;;;;;25.98;13.57;;;;;;;6.72;100.00;100514.34;5093431;28;20027;-71
2024/02/19 02:35:01;;;;;;;21.60;13.75;;;;;;;6.74;99.28;100510.16;5075186;28;20032;-71
2024/02/19 02:37:27;;;;;;;24.90;15.25;;;;;;;6.93;98.53;100505.91;5075038;28;20096;-71
2024/02/19 02:39:53;;;;;;;26.73;15.30;;;;;;;6.88;98.70;100499.25;5093053;28;20528;-71
2024/02/19 02:42:19;;;;;;;31.10;16.63;;;;;;;6.86;98.74;100509.81;5098941;28;20024;-71
2024/02/19 02:44:44;;;;;;;29.48;15.93;;;;;;;6.22;100.00;100503.91;5095146;28;20032;-71
2024/02/19 02:47:09;;;;;;;22.42;14.10;;;;;;;6.06;100.00;100500.31;5113558;28;20034;-70
2024/02/19 02:49:35;;;;;;;25.25;15.45;;;;;;;6.07;100.00;100493.63;5112928;28;20035;-70
2024/02/19 02:52:01;;;;;;;25.48;14.38;;;;;;;6.42;100.00;100502.19;5113722;28;20465;-71
2024/02/19 02:54:26;;;;;;;31.83;18.95;;;;;;;6.70;100.00;100497.94;5113350;28;20034;-70
2024/02/19 02:56:51;;;;;;;27.45;16.83;;;;;;;6.72;100.00;100489.31;5113096;28;20419;-70
2024/02/19 02:59:17;;;;;;;25.30;15.90;;;;;;;6.81;100.00;100498.72;5112927;28;20116;-71
2024/02/19 03:01:42;;;;;;;26.00;15.45;;;;;;;6.88;100.00;100496.47;5094927;28;20035;-71
2024/02/19 03:04:08;;;;;;;28.73;16.00;;;;;;;6.88;100.00;100493.69;5113137;28;20042;-71
2024/02/19 03:06:34;;;;;;;31.23;16.17;;;;;;;6.97;99.71;100493.94;5112949;28;20055;-71
2024/02/19 03:09:00;;;;;;;25.63;14.55;;;;;;;6.95;99.58;100496.19;5113180;28;20031;-70
2024/02/19 03:11:26;;;;;;;28.05;16.48;;;;;;;7.04;98.88;100507.53;5113017;28;20027;-70
2024/02/19 03:13:52;;;;;;;26.45;16.58;;;;;;;6.90;99.22;100500.94;5113080;28;20051;-71
2024/02/19 03:16:17;;;;;;;28.20;15.70;;;;;;;6.82;99.46;100505.94;5094708;28;20042;-71
2024/02/19 03:18:43;;;;;;;28.80;15.60;;;;;;;6.66;100.00;100507.13;5112015;28;20019;-71
2024/02/19 03:21:10;;;;;;;29.55;16.83;;;;;;;6.60;100.00;100506.31;5112997;28;20531;-71
2024/02/19 03:23:36;;;;;;;31.65;16.75;;;;;;;6.60;100.00;100518.25;5112875;28;20421;-70
2024/02/19 03:26:02;;;;;;;29.60;17.25;;;;;;;6.49;100.00;100511.06;5112067;28;20035;-71
2024/02/19 03:28:28;;;;;;;29.45;17.02;;;;;;;6.52;100.00;100504.13;5111932;28;20024;-71
2024/02/19 03:30:54;;;;;;;26.80;16.02;;;;;;;6.49;100.00;100516.63;5094300;28;20019;-71
2024/02/19 03:33:19;;;;;;;29.73;17.08;;;;;;;6.54;100.00;100516.63;5094345;28;20431;-71
2024/02/19 03:35:45;;;;;;;27.05;17.17;;;;;;;6.62;100.00;100514.34;5112214;28;20032;-71
2024/02/19 03:38:10;;;;;;;31.90;18.13;;;;;;;6.74;100.00;100518.50;5112680;28;20543;-71
2024/02/19 03:40:36;;;;;;;30.85;17.52;;;;;;;6.81;100.00;100509.00;5094195;28;20118;-71
2024/02/19 03:43:02;;;;;;;33.22;18.95;;;;;;;6.79;100.00;100519.59;5094209;28;20538;-71
2024/02/19 03:45:28;;;;;;;33.30;17.00;;;;;;;6.72;100.00;100525.44;5112447;28;20088;-70
2024/02/19 03:47:54;;;;;;;31.65;18.05;;;;;;;6.58;100.00;100516.91;5093906;28;20439;-70
2024/02/19 03:50:20;;;;;;;31.13;20.08;;;;;;;6.71;100.00;100523.78;5111541;28;20020;-71
2024/02/19 03:52:46;;;;;;;33.60;19.52;;;;;;;6.69;100.00;100524.06;5112276;28;20024;-71
2024/02/19 03:55:11;;;;;;;35.25;18.83;;;;;;;6.74;100.00;100526.00;5112704;28;20019;-71
2024/02/19 03:57:37;;;;;;;32.80;16.95;;;;;;;6.79;100.00;100527.94;5101886;28;20039;-71
2024/02/19 04:00:04;;;;;;;33.33;17.98;;;;;;;6.86;100.00;100526.50;5112141;28;20028;-71
2024/02/19 04:02:29;;;;;;;36.17;22.85;;;;;;;6.89;100.00;100516.78;5093962;28;20089;-71
2024/02/19 04:04:55;;;;;;;34.38;22.52;;;;;;;6.91;100.00;100528.44;5105666;28;20070;-71
2024/02/19 04:07:20;;;;;;;31.33;18.65;;;;;;;6.96;100.00;100522.03;5091789;28;20408;-71
2024/02/19 04:09:45;;;;;;;33.22;16.55;;;;;;;7.02;100.00;100520.91;5073406;28;20466;-71
2024/02/19 04:12:11;;;;;;;36.28;19.27;;;;;;;7.07;99.82;100515.28;5091607;28;20553;-71
2024/02/19 04:14:43;;;;;;;35.67;19.85;;;;;;;7.11;99.61;100519.16;5091772;28;20031;-70
2024/02/19 04:17:08;;;;;;;33.97;17.98;;;;;;;7.05;99.66;100513.91;5091598;28;20030;-71
2024/02/19 04:19:34;;;;;;;29.92;17.63;;;;;;;7.13;99.47;100513.31;5098789;28;20110;-70
2024/02/19 04:21:59;;;;;;;29.88;16.88;;;;;;;7.04;98.99;100499.19;5111521;28;20034;-71
2024/02/19 04:24:25;;;;;;;34.70;18.80;;;;;;;7.18;98.98;100502.19;5093309;28;20436;-71
2024/02/19 04:26:50;;;;;;;35.58;19.45;;;;;;;6.99;99.30;100510.31;5103363;28;20028;-70
2024/02/19 04:29:16;;;;;;;31.65;18.65;;;;;;;6.92;100.00;100504.25;5091283;28;20089;-71
2024/02/19 04:31:41;;;;;;;33.75;18.60;;;;;;;7.05;100.00;100502.78;5073110;28;20540;-70
2024/02/19 04:34:08;;;;;;;35.47;18.63;;;;;;;7.00;100.00;100504.47;5073205;28;20028;-69
2024/02/19 04:36:33;;;;;;;29.25;16.38;;;;;;;7.12;99.92;100497.75;5073300;28;20058;-69
2024/02/19 04:38:59;;;;;;;31.75;18.38;;;;;;;7.19;99.08;100495.50;5075789;28;20058;-69
2024/02/19 04:41:24;;;;;;;31.33;18.13;;;;;;;7.13;99.69;100503.03;5084499;28;20084;-69
2024/02/19 04:43:50;;;;;;;29.35;17.73;;;;;;;7.03;100.00;100497.53;5091266;28;20537;-69
2024/02/19 04:46:16;;;;;;;29.85;17.58;;;;;;;6.92;100.00;100502.28;5073089;28;20047;-69
2024/02/19 04:48:41;;;;;;;34.10;18.40;;;;;;;6.93;100.00;100503.94;5073527;28;20489;-70
2024/02/19 04:51:07;;;;;;;31.23;18.20;;;;;;;7.02;100.00;100499.47;5088525;28;20027;-69
2024/02/19 04:53:32;;;;;;;35.30;18.15;;;;;;;7.08;100.00;100503.03;5091177;28;20031;-69
2024/02/19 04:55:58;;;;;;;26.85;17.00;;;;;;;7.06;100.00;100502.50;5073307;28;20024;-69
2024/02/19 04:58:23;;;;;;;29.60;17.00;;;;;;;7.09;100.00;100512.25;5093091;28;20058;-69
2024/02/19 05:00:50;;;;;;;28.70;16.05;;;;;;;7.08;100.00;100516.13;5110916;28;20080;-69
2024/02/19 05:03:16;;;;;;;37.80;23.60;;;;;;;7.02;100.00;100509.78;5093390;28;20121;-69
2024/02/19 05:05:42;;;;;;;31.40;18.08;;;;;;;6.97;100.00;100518.13;5092948;28;20034;-69
2024/02/19 05:08:08;;;;;;;35.85;18.58;;;;;;;6.90;100.00;100521.22;5093023;28;20028;-69
2024/02/19 05:10:34;;;;;;;39.15;19.17;;;;;;;7.01;100.00;100516.47;5109355;28;20076;-69
2024/02/19 05:13:00;;;;;;;36.58;18.42;;;;;;;6.94;100.00;100516.75;5093015;28;20027;-69
2024/02/19 05:15:25;;;;;;;40.92;19.83;;;;;;;6.99;100.00;100522.28;5084681;28;20031;-69
2024/02/19 05:17:51;;;;;;;34.88;19.40;;;;;;;6.91;100.00;100508.16;5105816;28;20043;-70
2024/02/19 05:20:17;;;;;;;35.45;18.70;;;;;;;6.85;100.00;100516.50;5101042;28;20031;-69
2024/02/19 05:22:43;;;;;;;33.20;18.63;;;;;;;6.82;100.00;100514.28;5086719;28;20032;-69
2024/02/19 05:25:08;;;;;;;32.38;18.90;;;;;;;6.86;100.00;100514.56;5110151;28;20027;-69
2024/02/19 05:27:34;;;;;;;35.97;18.15;;;;;;;6.84;100.00;100509.28;5079257;28;20511;-69
2024/02/19 05:30:00;;;;;;;35.92;18.40;;;;;;;6.95;100.00;100509.22;5104828;28;20023;-69
2024/02/19 05:32:25;;;;;;;40.10;19.48;;;;;;;6.93;100.00;100519.81;5105988;28;20035;-69
2024/02/19 05:34:51;;;;;;;35.78;18.15;;;;;;;6.97;100.00;100518.13;5107991;28;20027;-69
2024/02/19 05:37:16;;;;;;;35.17;18.45;;;;;;;7.05;100.00;100523.09;5084925;28;20035;-70
2024/02/19 05:39:43;;;;;;;31.55;18.67;;;;;;;7.05;100.00;100517.53;5107235;28;20032;-70
2024/02/19 05:42:09;;;;;;;31.75;17.80;;;;;;;7.08;100.00;100514.19;5092360;28;20027;-69
2024/02/19 05:44:35;;;;;;;45.53;23.92;;;;;;;7.04;100.00;100529.78;5108717;28;20035;-70
2024/02/19 05:47:00;;;;;;;31.23;17.75;;;;;;;7.01;100.00;100528.41;5106300;28;20104;-71
2024/02/19 05:49:26;;;;;;;33.75;18.80;;;;;;;7.06;100.00;100527.53;5108683;28;20032;-71
2024/02/19 05:51:52;;;;;;;30.95;17.13;;;;;;;7.09;100.00;100538.09;5109704;28;20024;-70
2024/02/19 05:54:18;;;;;;;34.83;18.60;;;;;;;7.05;100.00;100528.66;5089045;28;20023;-71
2024/02/19 05:56:43;;;;;;;35.80;18.40;;;;;;;7.13;100.00;100539.22;5105039;28;20037;-70
2024/02/19 05:59:09;;;;;;;29.77;16.85;;;;;;;7.02;100.00;100532.03;5087253;28;20038;-69
2024/02/19 06:01:34;;;;;;;31.83;17.98;;;;;;;7.03;100.00;100533.69;5103388;28;20032;-70
2024/02/19 06:04:00;;;;;;;36.88;19.23;;;;;;;7.06;100.00;100530.31;5088865;28;20543;-70
2024/02/19 06:06:26;;;;;;;31.63;18.08;;;;;;;7.11;100.00;100538.63;5110091;28;20039;-70
2024/02/19 06:08:51;;;;;;;37.40;20.48;;;;;;;7.02;100.00;100526.47;5110286;28;20511;-71
2024/02/19 06:11:17;;;;;;;39.88;20.20;;;;;;;7.06;100.00;100535.88;5109895;28;20039;-70
2024/02/19 06:13:42;;;;;;;30.88;17.30;;;;;;;7.08;100.00;100533.66;5091821;28;20043;-71
2024/02/19 06:16:07;;;;;;;32.78;17.83;;;;;;;7.14;100.00;100532.53;5109843;28;20028;-70
2024/02/19 06:18:33;;;;;;;30.42;16.38;;;;;;;7.12;100.00;100529.19;5109917;28;20028;-71
2024/02/19 06:20:59;;;;;;;37.25;18.35;;;;;;;7.17;100.00;100525.53;5091573;28;20057;-70
2024/02/19 06:23:24;;;;;;;29.80;16.90;;;;;;;6.97;100.00;100532.88;5109927;28;20023;-71
2024/02/19 06:25:50;;;;;;;36.17;18.13;;;;;;;7.00;100.00;100529.53;5110584;28;20030;-70
2024/02/19 06:28:15;;;;;;;31.00;17.55;;;;;;;6.64;100.00;100534.41;5098169;28;20385;-72
2024/02/19 06:30:41;;;;;;;35.13;18.25;;;;;;;6.59;100.00;100533.28;5104067;28;20032;-71
2024/02/19 06:33:06;;;;;;;36.30;18.50;;;;;;;6.75;100.00;100541.56;5105045;28;20490;-70
2024/02/19 06:35:32;;;;;;;38.15;19.13;;;;;;;6.57;100.00;100524.38;5105463;28;20115;-68
2024/02/19 06:37:57;;;;;;;43.40;18.27;;;;;;;6.45;100.00;100530.25;5088396;28;20028;-71
2024/02/19 06:40:23;;;;;;;41.80;20.05;;;;;;;6.35;100.00;100532.22;5103615;28;20043;-73
2024/02/19 06:42:48;;;;;;;47.00;21.13;;;;;;;6.31;100.00;100534.72;5087953;28;20032;-73
2024/02/19 06:45:14;;;;;;;48.92;19.05;;;;;;;5.95;100.00;100541.13;5106944;28;20036;-71
2024/02/19 06:47:40;;;;;;;44.70;20.33;;;;;;;6.01;100.00;100537.25;5084558;28;20035;-71
2024/02/19 06:50:07;;;;;;;44.67;23.45;;;;;;;5.97;100.00;100535.28;5104138;28;20446;-72
2024/02/19 06:52:32;;;;;;;46.83;21.90;;;;;;;5.67;100.00;100535.00;5107642;28;20034;-70
2024/02/19 06:54:58;;;;;;;41.63;21.50;;;;;;;5.67;100.00;100535.00;5106674;28;20687;-72
2024/02/19 06:57:23;;;;;;;75.43;33.42;;;;;;;5.55;100.00;100537.19;5096023;28;20116;-70
2024/02/19 06:59:49;;;;;;;53.13;30.05;;;;;;;5.61;100.00;100533.31;5088763;28;20498;-70
2024/02/19 07:02:14;;;;;;;58.15;32.17;;;;;;;5.36;100.00;100534.94;5101774;28;20047;-72
2024/02/19 07:04:40;;;;;;;52.28;28.80;;;;;;;5.59;100.00;100518.88;5089503;28;20141;-72
2024/02/19 07:07:09;;;;;;;87.18;39.90;;;;;;;5.89;100.00;100525.56;5090778;28;20032;-71
2024/02/19 07:09:35;;;;;;;175.43;83.57;;;;;;;5.92;100.00;100530.56;5097117;28;20147;-71
2024/02/19 07:12:01;;;;;;;54.25;30.25;;;;;;;6.03;100.00;100526.72;5109786;28;20035;-70
2024/02/19 07:14:26;;;;;;;45.33;24.92;;;;;;;6.14;100.00;100533.09;5088106;28;20065;-70
2024/02/19 07:16:52;;;;;;;39.40;22.35;;;;;;;6.43;100.00;100534.44;5091078;28;20055;-70
2024/02/19 07:19:17;;;;;;;40.53;21.63;;;;;;;6.48;100.00;100526.06;5093602;28;20038;-69
2024/02/19 07:21:42;;;;;;;42.35;20.90;;;;;;;6.27;100.00;100519.72;5085673;28;20027;-69
2024/02/19 07:24:08;;;;;;;42.85;22.13;;;;;;;6.55;100.00;100529.41;5088528;28;20416;-69
2024/02/19 07:26:34;;;;;;;40.50;21.45;;;;;;;6.77;100.00;100533.78;5087005;28;20051;-70
2024/02/19 07:28:59;;;;;;;35.28;20.85;;;;;;;6.91;100.00;100538.75;5105918;28;20586;-69
2024/02/19 07:31:25;;;;;;;68.32;22.98;;;;;;;7.01;100.00;100522.03;5108509;28;20039;-71
2024/02/19 07:33:50;;;;;;;43.85;19.75;;;;;;;6.97;100.00;100527.31;5087760;28;20454;-70
2024/02/19 07:36:16;;;;;;;47.45;19.67;;;;;;;6.96;100.00;100524.81;5109920;28;20537;-70
2024/02/19 07:38:41;;;;;;;41.65;19.92;;;;;;;6.77;100.00;100525.44;5110069;28;20492;-71
2024/02/19 07:41:17;;;;;;;36.30;19.30;;;;;;;6.69;100.00;100526.84;5109181;28;20155;-70
2024/02/19 07:43:43;;;;;;;34.05;18.20;;;;;;;6.53;100.00;100514.97;5107077;28;20031;-71
2024/02/19 07:46:09;;;;;;;42.75;19.75;;;;;;;6.51;100.00;100516.34;5107645;28;20106;-71
2024/02/19 07:48:35;;;;;;;40.95;21.65;;;;;;;6.72;100.00;100517.97;5105478;28;20030;-72
2024/02/19 07:51:00;;;;;;;40.50;22.38;;;;;;;6.80;100.00;100519.31;5087083;28;20457;-72
2024/02/19 07:53:25;;;;;;;37.42;20.77;;;;;;;6.81;100.00;100517.34;5100236;28;20031;-69
2024/02/19 07:56:05;;;;;;;39.17;21.35;;;;;;;6.85;100.00;100519.28;5102020;28;20036;-69
2024/02/19 07:58:34;;;;;;;43.75;20.83;;;;;;;6.90;100.00;100525.97;5095078;28;20044;-71
2024/02/19 08:01:00;;;;;;;36.50;19.83;;;;;;;6.99;100.00;100518.66;5094543;28;20103;-70
2024/02/19 08:03:26;;;;;;;38.75;20.38;;;;;;;6.95;100.00;100514.81;5105104;28;20038;-69
2024/02/19 08:05:51;;;;;;;45.90;23.75;;;;;;;7.11;100.00;100507.22;5105390;27;20393;-69
2024/02/19 08:08:17;;;;;;;46.97;21.92;;;;;;;7.28;100.00;100512.41;5081398;28;20016;-71
2024/02/19 08:10:43;;;;;;;44.33;21.15;;;;;;;7.32;100.00;100521.84;5101444;28;20036;-68
2024/02/19 08:13:09;;;;;;;39.58;19.88;;;;;;;7.34;100.00;100516.00;5082120;28;20023;-69
2024/02/19 08:15:37;;;;;;;33.17;18.42;;;;;;;7.44;100.00;100513.16;5080627;28;20054;-72
2024/02/19 08:18:03;;;;;;;35.40;19.48;;;;;;;7.52;100.00;100514.50;5104930;28;20114;-71
2024/02/19 08:20:30;;;;;;;30.80;17.70;;;;;;;7.47;100.00;100514.50;5104787;28;20089;-70
2024/02/19 08:22:56;;;;;;;38.35;19.42;;;;;;;7.37;100.00;100515.41;5090958;28;20054;-70
2024/02/19 08:25:22;;;;;;;37.95;19.50;;;;;;;7.37;100.00;100509.84;5102655;28;20472;-68
2024/02/19 08:27:48;;;;;;;35.20;19.85;;;;;;;7.49;100.00;100504.75;5104447;28;20518;-67
2024/02/19 08:30:14;;;;;;;39.17;20.25;;;;;;;7.56;100.00;100510.00;5107694;28;20023;-68
2024/02/19 08:32:40;;;;;;;35.72;18.88;;;;;;;7.50;100.00;100505.59;5082043;28;20031;-70
2024/02/19 08:35:05;;;;;;;35.53;20.30;;;;;;;7.48;100.00;100502.25;5101584;28;20508;-70
2024/02/19 08:37:31;;;;;;;41.75;20.27;;;;;;;7.62;100.00;100500.50;5108267;28;20038;-70
2024/02/19 08:39:56;;;;;;;33.53;19.48;;;;;;;7.29;100.00;100495.41;5087814;28;20043;-70
2024/02/19 08:42:22;;;;;;;49.97;26.98;;;;;;;7.32;100.00;100507.94;5104478;28;20031;-69
2024/02/19 08:44:47;;;;;;;35.67;20.38;;;;;;;7.51;100.00;100507.25;5097497;28;20072;-69
2024/02/19 08:47:13;;;;;;;33.45;18.92;;;;;;;7.53;100.00;100505.81;5084330;28;20035;-70
2024/02/19 08:49:40;;;;;;;39.70;19.67;;;;;;;7.49;100.00;100515.06;5098527;28;20036;-70
2024/02/19 08:52:05;;;;;;;36.70;20.20;;;;;;;7.65;100.00;100507.41;5091000;28;20028;-69
2024/02/19 08:54:31;;;;;;;44.10;20.02;;;;;;;7.59;100.00;100506.63;5096719;28;20024;-70
2024/02/19 08:56:57;;;;;;;34.00;18.38;;;;;;;7.58;100.00;100497.47;5095283;28;20042;-71
2024/02/19 08:59:23;;;;;;;34.35;19.85;;;;;;;7.63;100.00;100502.16;5081370;28;20555;-70
2024/02/19 09:01:49;;;;;;;33.88;20.15;;;;;;;7.75;100.00;100507.34;5107316;28;20114;-70
2024/02/19 09:04:15;;;;;;;36.47;19.27;;;;;;;7.68;100.00;100499.31;5079923;28;20107;-73
2024/02/19 09:06:40;;;;;;;49.33;20.70;;;;;;;7.41;100.00;100505.34;5103529;28;20038;-69
2024/02/19 09:09:07;;;;;;;42.45;22.75;;;;;;;7.23;100.00;100495.72;5108757;28;20085;-69
2024/02/19 09:11:32;;;;;;;42.58;24.35;;;;;;;7.35;100.00;100507.34;5091128;28;20027;-71
2024/02/19 09:13:58;;;;;;;142.90;69.65;;;;;;;7.45;100.00;100498.94;5086546;28;20030;-73
2024/02/19 09:16:23;;;;;;;67.50;35.10;;;;;;;7.65;100.00;100508.25;5093810;28;20103;-72
2024/02/19 09:18:49;;;;;;;46.22;24.15;;;;;;;7.42;100.00;100509.81;5102187;28;20411;-72
2024/02/19 09:21:14;;;;;;;40.45;22.85;;;;;;;7.52;100.00;100503.34;5102997;28;20069;-71
2024/02/19 09:23:40;;;;;;;64.07;30.00;;;;;;;7.61;100.00;100509.13;5089409;28;20032;-71
2024/02/19 09:26:12;;;;;;;46.42;24.20;;;;;;;7.71;100.00;100500.72;5106357;28;20024;-72
2024/02/19 09:28:38;;;;;;;44.97;22.90;;;;;;;7.45;100.00;100503.69;5085328;28;20073;-73
2024/02/19 09:31:04;;;;;;;42.28;22.20;;;;;;;7.60;100.00;100505.50;5090299;28;20563;-72
2024/02/19 09:33:29;;;;;;;47.03;24.42;;;;;;;7.84;100.00;100499.19;5081669;28;20016;-72
2024/02/19 09:35:55;;;;;;;45.67;24.67;;;;;;;7.92;100.00;100506.94;5084099;28;20496;-71
2024/02/19 09:38:21;;;;;;;44.33;23.88;;;;;;;7.79;100.00;100504.81;5102549;28;20403;-69
2024/02/19 09:40:49;;;;;;;56.30;27.13;;;;;;;7.63;100.00;100496.59;5081382;28;20030;-71
2024/02/19 09:43:17;;;;;;;46.15;26.23;;;;;;;7.60;100.00;100497.16;5107138;28;20099;-71
2024/02/19 09:45:43;;;;;;;52.58;26.50;;;;;;;7.76;100.00;100505.41;5089491;28;20062;-69
2024/02/19 09:48:10;;;;;;;52.97;26.35;;;;;;;7.89;100.00;100496.38;5101413;28;20583;-70
2024/02/19 09:50:43;;;;;;;47.85;26.98;;;;;;;7.99;100.00;100496.28;5100401;28;20530;-69
2024/02/19 09:53:10;;;;;;;50.45;26.30;;;;;;;7.91;100.00;100496.09;5083820;28;20032;-69
2024/02/19 09:55:36;;;;;;;47.30;26.73;;;;;;;8.01;100.00;100498.75;5085952;28;20031;-71
2024/02/19 09:58:03;;;;;;;51.85;27.02;;;;;;;8.15;100.00;100494.19;5085445;28;20123;-70
2024/02/19 10:00:29;;;;;;;56.65;28.50;;;;;;;8.13;99.88;100481.69;5099785;28;20032;-71
2024/02/19 10:02:54;;;;;;;56.58;28.05;;;;;;;8.22;99.23;100488.28;5106336;28;20077;-72
2024/02/19 10:05:20;;;;;;;57.38;29.77;;;;;;;8.24;98.42;100480.44;5089835;28;20475;-72
2024/02/19 10:07:46;;;;;;;51.22;29.63;;;;;;;7.87;100.00;100485.53;5106406;28;20028;-74
2024/02/19 10:10:12;;;;;;;53.10;28.60;;;;;;;7.94;100.00;100484.38;5104413;28;20020;-70
2024/02/19 10:12:41;;;;;;;56.33;28.60;;;;;;;7.83;100.00;100470.53;5104803;28;20483;-72
2024/02/19 10:15:08;;;;;;;61.25;31.13;;;;;;;8.12;100.00;100477.22;5087974;28;20024;-71
2024/02/19 10:17:33;;;;;;;56.08;30.02;;;;;;;8.21;100.00;100472.69;5108030;28;20028;-74
2024/02/19 10:20:01;;;;;;;54.38;27.55;;;;;;;8.20;99.53;100484.94;5108161;28;20035;-71
2024/02/19 10:22:26;;;;;;;56.40;30.27;;;;;;;7.99;100.00;100470.38;5107451;28;20571;-71
2024/02/19 10:24:52;;;;;;;60.10;28.75;;;;;;;8.15;99.54;100469.13;5108177;28;20034;-71
2024/02/19 10:27:18;;;;;;;50.40;28.17;;;;;;;8.20;99.46;100471.00;5107976;28;20019;-72
2024/02/19 10:29:46;;;;;;;53.78;28.30;;;;;;;8.34;98.05;100471.13;5088605;28;20031;-72
2024/02/19 10:32:11;;;;;;;52.47;28.08;;;;;;;8.27;98.29;100465.09;5107646;28;20053;-72
2024/02/19 10:34:37;;;;;;;55.63;30.70;;;;;;;8.13;98.52;100448.22;5089208;28;20339;-73
2024/02/19 10:37:05;;;;;;;62.55;32.53;;;;;;;8.21;99.01;100455.97;5086495;28;20058;-72
2024/02/19 10:39:31;;;;;;;57.95;30.70;;;;;;;8.21;99.38;100453.16;5100079;28;20023;-73
2024/02/19 10:41:57;;;;;;;53.58;30.20;;;;;;;8.04;99.49;100441.63;5109989;28;20122;-73
2024/02/19 10:44:24;;;;;;;56.92;30.65;;;;;;;8.01;100.00;100445.81;5091389;28;20114;-74
2024/02/19 10:46:51;;;;;;;55.95;31.75;;;;;;;8.17;100.00;100438.16;5096445;28;20557;-74
2024/02/19 10:49:19;;;;;;;57.20;31.02;;;;;;;8.28;99.78;100442.47;5075004;28;20028;-74
2024/02/19 10:51:46;;;;;;;67.78;32.30;;;;;;;8.36;99.18;100442.97;5098087;28;20020;-72
2024/02/19 10:54:16;;;;;;;60.00;32.38;;;;;;;8.19;98.92;100430.31;5073898;28;20426;-73
2024/02/19 10:56:44;;;;;;;;;;;;;;;8.41;97.71;100434.53;5089616;28;20032;-72
2024/02/19 10:59:11;;;;;;;56.67;32.53;;;;;;;8.38;97.39;100427.59;5077342;28;20395;-75
2024/02/19 11:01:46;;;;;;;64.82;33.25;;;;;;;8.32;98.54;100420.44;5097884;28;20043;-74
2024/02/19 11:04:14;;;;;;;57.67;30.42;;;;;;;8.57;97.30;100422.13;5103021;28;20391;-74
2024/02/19 11:06:44;;;;;;;60.50;31.10;;;;;;;8.59;96.89;100407.03;5091424;28;20039;-75